createdAt,value
2019-05-26T00:00:06.185Z,10.80
2019-05-26T00:01:06.202Z,12.70
2019-05-26T00:02:06.197Z,17.10
2019-05-26T00:03:06.218Z,14.20
2019-05-26T00:04:06.216Z,14.10
2019-05-26T00:05:06.265Z,15.50
2019-05-26T00:06:06.235Z,16.30
2019-05-26T00:07:06.233Z,10.10
2019-05-26T00:08:06.260Z,12.50
2019-05-26T00:09:06.263Z,10.80
2019-05-26T00:10:06.413Z,10.00
2019-05-26T00:11:06.274Z,8.40
2019-05-26T00:12:06.280Z,8.50
2019-05-26T00:13:06.292Z,11.70
2019-05-26T00:14:06.301Z,10.00
2019-05-26T00:15:06.300Z,10.60
2019-05-26T00:16:06.322Z,11.00
2019-05-26T00:17:06.323Z,9.40
2019-05-26T00:18:06.328Z,9.60
2019-05-26T00:19:06.357Z,12.30
2019-05-26T00:20:06.334Z,10.80
2019-05-26T00:21:06.370Z,12.70
2019-05-26T00:22:06.360Z,13.60
2019-05-26T00:23:06.366Z,12.70
2019-05-26T00:24:06.376Z,15.10
2019-05-26T00:25:06.376Z,13.10
2019-05-26T00:26:06.397Z,13.10
2019-05-26T00:27:06.395Z,15.40
2019-05-26T00:28:06.410Z,10.40
2019-05-26T00:29:06.413Z,8.20
2019-05-26T00:30:06.444Z,8.50
2019-05-26T00:31:06.435Z,13.10
2019-05-26T00:32:06.439Z,8.50
2019-05-26T00:33:06.459Z,12.00
2019-05-26T00:34:06.453Z,11.80
2019-05-26T00:35:06.454Z,14.50
2019-05-26T00:36:06.456Z,11.90
2019-05-26T00:37:06.475Z,17.70
2019-05-26T00:38:06.483Z,9.40
2019-05-26T00:39:06.483Z,9.20
2019-05-26T00:40:06.506Z,9.30
2019-05-26T00:41:06.503Z,9.50
2019-05-26T00:42:06.514Z,9.40
2019-05-26T00:43:06.611Z,9.90
2019-05-26T00:44:06.532Z,12.40
2019-05-26T00:45:06.540Z,11.40
2019-05-26T00:46:06.548Z,8.60
2019-05-26T00:47:06.550Z,10.80
2019-05-26T00:48:06.578Z,10.80
2019-05-26T00:49:06.568Z,11.20
2019-05-26T00:50:06.573Z,9.50
2019-05-26T00:51:06.584Z,12.80
2019-05-26T00:52:06.592Z,9.80
2019-05-26T00:53:06.595Z,10.80
2019-05-26T00:54:06.600Z,9.80
2019-05-26T00:55:06.613Z,12.60
2019-05-26T00:56:06.618Z,11.00
2019-05-26T00:57:06.637Z,11.10
2019-05-26T00:58:06.637Z,8.90
2019-05-26T00:59:06.648Z,11.40
2019-05-26T01:00:06.653Z,9.50
2019-05-26T01:01:06.666Z,11.20
2019-05-26T01:02:06.666Z,11.50
2019-05-26T01:03:06.667Z,11.00
2019-05-26T01:04:06.690Z,12.00
2019-05-26T01:05:06.691Z,10.10
2019-05-26T01:06:06.721Z,12.40
2019-05-26T01:07:06.714Z,10.70
2019-05-26T01:08:07.000Z,8.90
2019-05-26T01:09:06.750Z,10.90
2019-05-26T01:10:06.731Z,12.90
2019-05-26T01:11:06.735Z,12.90
2019-05-26T01:12:06.742Z,11.30
2019-05-26T01:13:06.752Z,11.40
2019-05-26T01:14:06.761Z,14.60
2019-05-26T01:15:06.782Z,12.80
2019-05-26T01:16:06.766Z,9.40
2019-05-26T01:17:06.783Z,9.90
2019-05-26T01:18:06.789Z,11.10
2019-05-26T01:19:06.795Z,10.40
2019-05-26T01:20:06.809Z,10.80
2019-05-26T01:21:06.824Z,9.30
2019-05-26T01:22:06.831Z,10.20
2019-05-26T01:23:06.830Z,8.20
2019-05-26T01:24:06.831Z,8.90
2019-05-26T01:25:06.921Z,11.90
2019-05-26T01:26:06.852Z,12.50
2019-05-26T01:27:06.859Z,10.60
2019-05-26T01:28:06.876Z,13.60
2019-05-26T01:29:06.874Z,13.90
2019-05-26T01:30:06.881Z,8.00
2019-05-26T01:31:07.024Z,9.50
2019-05-26T01:32:06.896Z,12.70
2019-05-26T01:33:06.901Z,9.40
2019-05-26T01:34:06.908Z,10.90
2019-05-26T01:35:06.984Z,10.30
2019-05-26T01:36:06.919Z,10.50
2019-05-26T01:37:06.940Z,16.70
2019-05-26T01:38:22.657Z,11.30
2019-05-26T01:39:06.948Z,11.40
2019-05-26T01:40:06.960Z,10.50
2019-05-26T01:41:06.950Z,8.90
2019-05-26T01:42:06.971Z,11.60
2019-05-26T01:43:06.979Z,10.00
2019-05-26T01:44:06.977Z,10.30
2019-05-26T01:45:06.992Z,13.60
2019-05-26T01:46:06.996Z,18.60
2019-05-26T01:47:07.006Z,20.80
2019-05-26T01:48:07.021Z,13.60
2019-05-26T01:49:07.012Z,11.20
2019-05-26T01:50:07.034Z,10.50
2019-05-26T01:51:07.034Z,12.10
2019-05-26T01:52:07.046Z,11.60
2019-05-26T01:53:07.056Z,11.90
2019-05-26T01:54:07.059Z,12.20
2019-05-26T01:55:07.062Z,10.70
2019-05-26T01:56:07.065Z,10.20
2019-05-26T01:57:07.086Z,9.90
2019-05-26T01:59:07.100Z,11.20
2019-05-26T02:00:07.109Z,9.30
2019-05-26T02:01:07.153Z,13.30
2019-05-26T02:02:07.119Z,14.10
2019-05-26T02:03:07.128Z,11.40
2019-05-26T02:04:07.264Z,11.80
2019-05-26T02:05:07.136Z,12.30
2019-05-26T02:06:07.157Z,10.10
2019-05-26T02:07:07.185Z,10.60
2019-05-26T02:08:07.221Z,10.00
2019-05-26T02:09:07.158Z,10.40
2019-05-26T02:10:07.179Z,10.60
2019-05-26T02:11:07.181Z,11.70
2019-05-26T02:12:07.273Z,10.60
2019-05-26T02:13:07.197Z,12.00
2019-05-26T02:14:07.203Z,12.00
2019-05-26T02:15:07.260Z,14.10
2019-05-26T02:16:07.218Z,11.20
2019-05-26T02:17:07.234Z,9.60
2019-05-26T02:18:07.230Z,12.40
2019-05-26T02:19:07.248Z,10.50
2019-05-26T02:20:07.250Z,11.20
2019-05-26T02:21:07.263Z,11.00
2019-05-26T02:22:07.367Z,9.80
2019-05-26T02:23:07.272Z,10.10
2019-05-26T02:24:07.280Z,11.20
2019-05-26T02:25:07.285Z,12.60
2019-05-26T02:26:07.291Z,11.20
2019-05-26T02:27:07.297Z,12.90
2019-05-26T02:28:07.307Z,11.80
2019-05-26T02:29:07.309Z,12.80
2019-05-26T02:30:07.320Z,12.20
2019-05-26T02:31:07.334Z,10.90
2019-05-26T02:32:07.327Z,11.20
2019-05-26T02:33:07.343Z,10.80
2019-05-26T02:34:07.346Z,12.70
2019-05-26T02:35:07.435Z,14.70
2019-05-26T02:36:07.359Z,11.30
2019-05-26T02:37:07.367Z,11.70
2019-05-26T02:38:07.396Z,10.30
2019-05-26T02:39:07.382Z,9.80
2019-05-26T02:40:07.391Z,11.80
2019-05-26T02:41:07.401Z,13.10
2019-05-26T02:42:07.408Z,10.90
2019-05-26T02:43:07.410Z,10.30
2019-05-26T02:44:07.426Z,12.80
2019-05-26T02:45:07.481Z,13.10
2019-05-26T02:46:07.457Z,10.90
2019-05-26T02:47:07.442Z,12.10
2019-05-26T02:48:07.451Z,11.30
2019-05-26T02:49:07.461Z,13.30
2019-05-26T02:50:07.469Z,16.80
2019-05-26T02:51:07.469Z,13.00
2019-05-26T02:52:07.482Z,10.70
2019-05-26T02:53:07.484Z,13.30
2019-05-26T02:54:07.501Z,10.50
2019-05-26T02:55:07.576Z,11.30
2019-05-26T02:56:07.508Z,12.80
2019-05-26T02:57:07.516Z,14.70
2019-05-26T02:58:07.535Z,12.80
2019-05-26T02:59:07.520Z,11.40
2019-05-26T03:00:07.547Z,16.30
2019-05-26T03:01:07.549Z,14.00
2019-05-26T03:02:07.546Z,13.50
2019-05-26T03:03:07.562Z,14.00
2019-05-26T03:04:07.574Z,15.80
2019-05-26T03:05:07.564Z,12.30
2019-05-26T03:06:07.578Z,14.30
2019-05-26T03:07:07.582Z,14.40
2019-05-26T03:08:07.589Z,11.40
2019-05-26T03:09:22.084Z,9.70
2019-05-26T03:10:07.614Z,15.40
2019-05-26T03:11:07.612Z,12.90
2019-05-26T03:12:07.616Z,11.00
2019-05-26T03:13:07.646Z,11.40
2019-05-26T03:14:07.625Z,16.80
2019-05-26T03:15:07.634Z,13.60
2019-05-26T03:16:07.647Z,13.10
2019-05-26T03:17:07.649Z,12.60
2019-05-26T03:18:07.652Z,14.20
2019-05-26T03:19:07.662Z,13.30
2019-05-26T03:20:07.674Z,13.60
2019-05-26T03:21:07.686Z,12.50
2019-05-26T03:22:07.697Z,11.40
2019-05-26T03:23:07.807Z,12.10
2019-05-26T03:24:07.695Z,12.20
2019-05-26T03:25:07.704Z,13.10
2019-05-26T03:26:07.705Z,16.40
2019-05-26T03:27:07.719Z,11.60
2019-05-26T03:28:07.722Z,12.00
2019-05-26T03:29:07.728Z,14.20
2019-05-26T03:30:07.726Z,12.70
2019-05-26T03:31:07.740Z,14.20
2019-05-26T03:32:07.818Z,16.00
2019-05-26T03:33:07.804Z,13.20
2019-05-26T03:34:07.903Z,13.20
2019-05-26T03:35:07.791Z,14.40
2019-05-26T03:36:10.417Z,15.60
2019-05-26T03:37:07.791Z,15.50
2019-05-26T03:38:07.786Z,13.00
2019-05-26T03:39:07.799Z,21.00
2019-05-26T03:40:07.801Z,15.60
2019-05-26T03:41:07.804Z,16.20
2019-05-26T03:42:07.815Z,13.90
2019-05-26T03:43:07.822Z,12.60
2019-05-26T03:44:07.831Z,14.30
2019-05-26T03:45:07.836Z,14.30
2019-05-26T03:46:07.938Z,13.80
2019-05-26T03:47:07.846Z,13.50
2019-05-26T03:48:07.864Z,16.10
2019-05-26T03:49:07.866Z,13.30
2019-05-26T03:50:08.012Z,16.70
2019-05-26T03:51:07.870Z,13.40
2019-05-26T03:52:07.875Z,14.10
2019-05-26T03:53:07.891Z,13.70
2019-05-26T03:54:07.903Z,13.40
2019-05-26T03:55:07.903Z,13.90
2019-05-26T03:56:07.912Z,18.00
2019-05-26T03:57:07.933Z,15.10
2019-05-26T03:58:07.919Z,15.20
2019-05-26T03:59:07.931Z,14.80
2019-05-26T04:00:07.938Z,12.80
2019-05-26T04:01:08.024Z,13.30
2019-05-26T04:02:07.950Z,14.20
2019-05-26T04:03:08.027Z,15.10
2019-05-26T04:04:07.955Z,14.80
2019-05-26T04:05:07.970Z,19.90
2019-05-26T04:06:07.972Z,18.60
2019-05-26T04:07:07.980Z,15.60
2019-05-26T04:08:07.989Z,14.60
2019-05-26T04:09:07.996Z,12.40
2019-05-26T04:10:08.065Z,17.10
2019-05-26T04:11:08.001Z,12.80
2019-05-26T04:12:08.013Z,19.90
2019-05-26T04:13:08.024Z,13.60
2019-05-26T04:14:08.098Z,12.90
2019-05-26T04:16:08.041Z,13.80
2019-05-26T04:17:08.046Z,15.30
2019-05-26T04:18:08.057Z,16.80
2019-05-26T04:19:08.068Z,16.10
2019-05-26T04:21:08.079Z,14.50
2019-05-26T04:22:08.082Z,13.70
2019-05-26T04:23:08.087Z,17.80
2019-05-26T04:24:08.134Z,19.50
2019-05-26T04:25:08.111Z,16.80
2019-05-26T04:26:08.115Z,14.20
2019-05-26T04:27:08.119Z,13.90
2019-05-26T04:28:08.123Z,16.20
2019-05-26T04:29:08.134Z,13.40
2019-05-26T04:31:08.175Z,17.40
2019-05-26T04:32:08.166Z,16.00
2019-05-26T04:33:08.170Z,16.80
2019-05-26T04:34:08.155Z,14.50
2019-05-26T04:35:08.175Z,17.30
2019-05-26T04:36:08.176Z,16.90
2019-05-26T04:37:08.182Z,17.10
2019-05-26T04:38:08.191Z,18.60
2019-05-26T04:39:08.195Z,17.60
2019-05-26T04:40:25.624Z,15.10
2019-05-26T04:41:08.212Z,20.80
2019-05-26T04:42:08.224Z,16.40
2019-05-26T04:43:08.229Z,19.20
2019-05-26T04:44:08.233Z,18.20
2019-05-26T04:45:08.237Z,15.00
2019-05-26T04:46:08.239Z,19.30
2019-05-26T04:47:08.245Z,16.50
2019-05-26T04:48:08.264Z,21.60
2019-05-26T04:49:08.440Z,16.60
2019-05-26T04:50:08.271Z,15.70
2019-05-26T04:51:08.280Z,18.80
2019-05-26T04:52:08.415Z,16.60
2019-05-26T04:53:08.410Z,17.60
2019-05-26T04:54:08.293Z,16.30
2019-05-26T04:55:08.300Z,17.40
2019-05-26T04:56:08.305Z,19.40
2019-05-26T04:57:08.335Z,15.20
2019-05-26T04:58:08.329Z,17.60
2019-05-26T04:59:08.339Z,17.70
2019-05-26T05:00:08.346Z,13.50
2019-05-26T05:01:08.352Z,16.80
2019-05-26T05:02:08.466Z,15.80
2019-05-26T05:03:08.366Z,18.20
2019-05-26T05:04:08.376Z,21.80
2019-05-26T05:05:08.389Z,16.30
2019-05-26T05:06:08.392Z,17.50
2019-05-26T05:07:08.401Z,18.00
2019-05-26T05:08:08.396Z,19.60
2019-05-26T05:09:08.412Z,17.80
2019-05-26T05:10:08.416Z,19.30
2019-05-26T05:11:08.427Z,18.40
2019-05-26T05:12:08.424Z,17.30
2019-05-26T05:13:08.438Z,18.50
2019-05-26T05:14:08.448Z,21.10
2019-05-26T05:15:08.542Z,20.60
2019-05-26T05:16:08.458Z,21.50
2019-05-26T05:17:08.477Z,20.70
2019-05-26T05:18:08.521Z,21.10
2019-05-26T05:19:08.502Z,19.70
2019-05-26T05:20:08.487Z,21.00
2019-05-26T05:21:08.508Z,19.70
2019-05-26T05:22:08.517Z,19.80
2019-05-26T05:23:08.518Z,18.30
2019-05-26T05:24:08.526Z,18.90
2019-05-26T05:25:14.212Z,21.10
2019-05-26T05:26:08.543Z,18.90
2019-05-26T05:27:08.550Z,20.00
2019-05-26T05:28:08.557Z,20.40
2019-05-26T05:29:08.567Z,15.80
2019-05-26T05:30:08.574Z,21.70
2019-05-26T05:31:08.588Z,20.20
2019-05-26T05:32:08.588Z,26.00
2019-05-26T05:33:08.614Z,21.00
2019-05-26T05:34:08.610Z,20.20
2019-05-26T05:35:08.620Z,19.10
2019-05-26T05:36:08.629Z,18.50
2019-05-26T05:37:08.631Z,18.90
2019-05-26T05:38:08.638Z,21.70
2019-05-26T05:39:08.658Z,17.90
2019-05-26T05:40:08.665Z,22.10
2019-05-26T05:41:08.669Z,20.30
2019-05-26T05:42:08.685Z,24.20
2019-05-26T05:43:08.679Z,17.50
2019-05-26T05:44:08.706Z,20.30
2019-05-26T05:45:08.707Z,22.70
2019-05-26T05:46:08.714Z,23.50
2019-05-26T05:47:08.722Z,22.60
2019-05-26T05:48:08.804Z,19.70
2019-05-26T05:49:08.738Z,28.20
2019-05-26T05:50:08.741Z,20.00
2019-05-26T05:51:08.753Z,20.30
2019-05-26T05:52:08.765Z,22.90
2019-05-26T05:53:08.772Z,20.00
2019-05-26T05:54:08.780Z,23.50
2019-05-26T05:55:08.787Z,22.20
2019-05-26T05:57:08.811Z,21.70
2019-05-26T05:58:08.817Z,21.50
2019-05-26T05:59:08.825Z,21.90
2019-05-26T06:00:08.832Z,22.30
2019-05-26T06:01:08.837Z,19.00
2019-05-26T06:02:08.848Z,19.80
2019-05-26T06:03:08.862Z,19.70
2019-05-26T06:04:08.869Z,19.40
2019-05-26T06:05:08.877Z,21.90
2019-05-26T06:06:08.882Z,21.40
2019-05-26T06:07:08.901Z,22.50
2019-05-26T06:08:08.900Z,21.10
2019-05-26T06:09:08.911Z,22.60
2019-05-26T06:10:08.921Z,22.00
2019-05-26T06:11:16.446Z,23.10
2019-05-26T06:12:08.945Z,24.40
2019-05-26T06:13:08.948Z,24.30
2019-05-26T06:14:08.963Z,23.30
2019-05-26T06:15:08.972Z,26.20
2019-05-26T06:16:08.992Z,23.00
2019-05-26T06:17:10.592Z,23.80
2019-05-26T06:18:08.988Z,20.30
2019-05-26T06:19:08.995Z,20.40
2019-05-26T06:20:09.023Z,23.60
2019-05-26T06:21:09.015Z,23.40
2019-05-26T06:22:09.024Z,23.60
2019-05-26T06:23:09.048Z,22.70
2019-05-26T06:24:09.044Z,21.30
2019-05-26T06:25:09.117Z,24.30
2019-05-26T06:26:09.082Z,22.10
2019-05-26T06:27:09.068Z,21.80
2019-05-26T06:28:09.070Z,20.70
2019-05-26T06:29:09.084Z,25.70
2019-05-26T06:30:09.093Z,24.50
2019-05-26T06:31:09.170Z,23.90
2019-05-26T06:32:09.307Z,22.60
2019-05-26T06:33:09.118Z,22.40
2019-05-26T06:34:09.131Z,21.80
2019-05-26T06:35:09.167Z,22.40
2019-05-26T06:36:09.148Z,25.40
2019-05-26T06:37:09.155Z,21.90
2019-05-26T06:38:09.157Z,21.80
2019-05-26T06:39:09.177Z,23.90
2019-05-26T06:40:09.187Z,23.50
2019-05-26T06:41:09.248Z,22.60
2019-05-26T06:42:12.812Z,19.90
2019-05-26T06:43:09.215Z,21.50
2019-05-26T06:44:09.227Z,21.20
2019-05-26T06:45:09.225Z,21.20
2019-05-26T06:46:09.243Z,21.10
2019-05-26T06:47:09.273Z,21.20
2019-05-26T06:48:09.264Z,20.60
2019-05-26T06:49:09.276Z,18.90
2019-05-26T06:50:09.283Z,20.00
2019-05-26T06:51:09.296Z,22.00
2019-05-26T06:52:09.311Z,20.90
2019-05-26T06:53:09.330Z,21.20
2019-05-26T06:54:09.331Z,22.30
2019-05-26T06:55:09.341Z,26.10
2019-05-26T06:56:09.350Z,23.10
2019-05-26T06:57:09.362Z,20.20
2019-05-26T06:58:09.373Z,23.10
2019-05-26T06:59:09.380Z,21.40
2019-05-26T07:00:09.398Z,21.10
2019-05-26T07:01:09.394Z,22.90
2019-05-26T07:02:09.405Z,23.20
2019-05-26T07:03:09.416Z,22.90
2019-05-26T07:04:09.432Z,22.50
2019-05-26T07:05:09.433Z,23.50
2019-05-26T07:06:09.447Z,23.50
2019-05-26T07:07:09.462Z,24.10
2019-05-26T07:08:09.497Z,23.50
2019-05-26T07:09:09.481Z,25.70
2019-05-26T07:10:09.490Z,25.00
2019-05-26T07:11:09.490Z,27.00
2019-05-26T07:12:09.511Z,26.20
2019-05-26T07:13:09.523Z,23.00
2019-05-26T07:14:09.526Z,24.90
2019-05-26T07:15:09.542Z,26.30
2019-05-26T07:16:09.541Z,35.60
2019-05-26T07:17:09.561Z,26.00
2019-05-26T07:18:09.572Z,24.40
2019-05-26T07:19:09.575Z,23.50
2019-05-26T07:20:09.612Z,25.80
2019-05-26T07:21:09.615Z,23.90
2019-05-26T07:22:09.610Z,26.90
2019-05-26T07:23:10.343Z,25.00
2019-05-26T07:24:09.656Z,26.90
2019-05-26T07:25:09.713Z,24.20
2019-05-26T07:26:09.660Z,22.70
2019-05-26T07:27:09.671Z,22.60
2019-05-26T07:28:09.697Z,25.20
2019-05-26T07:29:09.814Z,24.70
2019-05-26T07:30:09.694Z,22.00
2019-05-26T07:31:09.712Z,22.10
2019-05-26T07:32:09.729Z,22.60
2019-05-26T07:33:09.737Z,22.90
2019-05-26T07:34:09.749Z,23.20
2019-05-26T07:35:09.758Z,25.70
2019-05-26T07:36:09.763Z,20.70
2019-05-26T07:37:09.787Z,22.70
2019-05-26T07:38:09.788Z,23.20
2019-05-26T07:39:09.818Z,21.10
2019-05-26T07:40:09.872Z,23.30
2019-05-26T07:41:09.826Z,23.50
2019-05-26T07:42:11.259Z,24.00
2019-05-26T07:43:09.859Z,22.10
2019-05-26T07:44:09.856Z,25.80
2019-05-26T07:45:09.927Z,20.40
2019-05-26T07:46:09.884Z,24.40
2019-05-26T07:47:09.903Z,22.40
2019-05-26T07:48:09.909Z,22.90
2019-05-26T07:49:09.932Z,23.00
2019-05-26T07:50:09.964Z,21.80
2019-05-26T07:51:09.947Z,22.00
2019-05-26T07:52:10.058Z,22.30
2019-05-26T07:53:09.965Z,20.90
2019-05-26T07:54:24.518Z,22.60
2019-05-26T07:55:09.998Z,21.30
2019-05-26T07:56:10.003Z,24.70
2019-05-26T07:57:10.018Z,20.40
2019-05-26T07:58:10.013Z,21.80
2019-05-26T07:59:10.034Z,25.60
2019-05-26T08:00:10.044Z,22.20
2019-05-26T08:01:10.053Z,24.70
2019-05-26T08:02:10.079Z,22.70
2019-05-26T08:03:10.084Z,25.30
2019-05-26T08:04:10.080Z,20.40
2019-05-26T08:05:10.096Z,21.30
2019-05-26T08:06:10.119Z,20.80
2019-05-26T08:07:10.117Z,23.10
2019-05-26T08:08:13.115Z,21.10
2019-05-26T08:09:10.140Z,21.90
2019-05-26T08:10:10.147Z,22.10
2019-05-26T08:11:10.152Z,24.20
2019-05-26T08:12:24.983Z,22.60
2019-05-26T08:13:10.181Z,24.90
2019-05-26T08:14:10.210Z,22.50
2019-05-26T08:15:10.203Z,22.70
2019-05-26T08:16:10.213Z,22.30
2019-05-26T08:17:10.219Z,21.90
2019-05-26T08:18:10.232Z,21.90
2019-05-26T08:19:10.253Z,24.80
2019-05-26T08:20:10.264Z,23.90
2019-05-26T08:21:10.267Z,22.00
2019-05-26T08:22:10.271Z,21.10
2019-05-26T08:23:10.292Z,21.50
2019-05-26T08:24:10.289Z,21.00
2019-05-26T08:25:10.303Z,20.10
2019-05-26T08:26:10.318Z,20.20
2019-05-26T08:27:10.385Z,23.20
2019-05-26T08:28:10.342Z,22.40
2019-05-26T08:29:10.347Z,23.30
2019-05-26T08:30:10.386Z,24.20
2019-05-26T08:31:13.373Z,23.00
2019-05-26T08:33:10.389Z,22.70
2019-05-26T08:34:10.401Z,19.50
2019-05-26T08:35:10.416Z,20.20
2019-05-26T08:36:10.415Z,20.80
2019-05-26T08:37:10.426Z,21.90
2019-05-26T08:38:10.456Z,22.50
2019-05-26T08:39:10.453Z,21.90
2019-05-26T08:40:10.456Z,20.30
2019-05-26T08:41:10.473Z,19.00
2019-05-26T08:42:26.012Z,23.00
2019-05-26T08:43:10.496Z,20.40
2019-05-26T08:44:10.497Z,18.60
2019-05-26T08:45:10.508Z,18.60
2019-05-26T08:46:10.540Z,17.50
2019-05-26T08:47:10.526Z,16.90
2019-05-26T08:48:10.557Z,18.40
2019-05-26T08:49:10.554Z,17.00
2019-05-26T08:50:10.570Z,17.40
2019-05-26T08:51:10.578Z,17.20
2019-05-26T08:52:10.586Z,16.40
2019-05-26T08:53:10.582Z,16.00
2019-05-26T08:54:10.604Z,16.70
2019-05-26T08:55:10.627Z,15.30
2019-05-26T08:56:10.619Z,17.70
2019-05-26T08:57:10.647Z,17.90
2019-05-26T08:58:10.651Z,14.80
2019-05-26T08:59:10.655Z,13.60
2019-05-26T09:00:10.665Z,16.30
2019-05-26T09:01:10.690Z,14.10
2019-05-26T09:02:10.758Z,14.60
2019-05-26T09:03:10.703Z,15.20
2019-05-26T09:04:10.704Z,13.00
2019-05-26T09:05:10.710Z,13.40
2019-05-26T09:06:10.721Z,14.80
2019-05-26T09:07:10.742Z,14.90
2019-05-26T09:08:10.749Z,13.90
2019-05-26T09:09:10.757Z,12.60
2019-05-26T09:10:10.767Z,15.60
2019-05-26T09:11:10.775Z,12.40
2019-05-26T09:12:10.869Z,12.60
2019-05-26T09:13:10.797Z,13.20
2019-05-26T09:14:10.805Z,13.80
2019-05-26T09:15:11.735Z,16.20
2019-05-26T09:16:10.831Z,14.70
2019-05-26T09:17:10.834Z,16.30
2019-05-26T09:18:10.837Z,15.50
2019-05-26T09:19:10.853Z,14.30
2019-05-26T09:20:12.095Z,18.00
2019-05-26T09:21:10.876Z,13.20
2019-05-26T09:22:10.889Z,17.60
2019-05-26T09:23:10.912Z,13.50
2019-05-26T09:24:10.906Z,14.30
2019-05-26T09:25:10.911Z,13.40
2019-05-26T09:26:10.935Z,15.10
2019-05-26T09:27:10.934Z,12.30
2019-05-26T09:28:10.970Z,12.40
2019-05-26T09:29:10.961Z,14.00
2019-05-26T09:30:10.972Z,13.50
2019-05-26T09:31:10.985Z,14.60
2019-05-26T09:32:11.053Z,11.10
2019-05-26T09:33:11.008Z,12.70
2019-05-26T09:34:11.016Z,15.00
2019-05-26T09:35:11.038Z,11.40
2019-05-26T09:36:11.041Z,10.30
2019-05-26T09:37:11.056Z,13.20
2019-05-26T09:38:11.070Z,12.70
2019-05-26T09:39:11.073Z,12.90
2019-05-26T09:40:11.097Z,13.00
2019-05-26T09:41:11.102Z,14.40
2019-05-26T09:42:11.112Z,12.10
2019-05-26T09:43:16.052Z,13.20
2019-05-26T09:44:11.134Z,12.30
2019-05-26T09:45:11.202Z,12.20
2019-05-26T09:46:11.160Z,11.90
2019-05-26T09:47:11.176Z,13.40
2019-05-26T09:48:11.190Z,12.00
2019-05-26T09:49:11.200Z,12.80
2019-05-26T09:50:11.205Z,12.30
2019-05-26T09:51:11.216Z,12.40
2019-05-26T09:52:11.226Z,12.20
2019-05-26T09:53:11.244Z,15.50
2019-05-26T09:54:12.719Z,11.20
2019-05-26T09:55:11.273Z,10.10
2019-05-26T09:56:11.308Z,13.10
2019-05-26T09:57:11.298Z,9.80
2019-05-26T09:58:11.321Z,10.80
2019-05-26T10:00:11.339Z,11.80
2019-05-26T10:01:11.334Z,10.50
2019-05-26T10:02:11.350Z,11.20
2019-05-26T10:03:11.367Z,10.00
2019-05-26T10:04:11.376Z,9.80
2019-05-26T10:05:11.392Z,10.80
2019-05-26T10:06:11.408Z,7.70
2019-05-26T10:07:15.682Z,10.70
2019-05-26T10:08:11.445Z,12.90
2019-05-26T10:09:11.437Z,7.60
2019-05-26T10:10:11.508Z,8.80
2019-05-26T10:11:11.466Z,6.20
2019-05-26T10:12:11.485Z,6.90
2019-05-26T10:13:11.491Z,6.30
2019-05-26T10:14:11.514Z,8.40
2019-05-26T10:15:11.521Z,9.00
2019-05-26T10:16:11.534Z,9.80
2019-05-26T10:17:11.561Z,7.50
2019-05-26T10:18:11.582Z,6.30
2019-05-26T10:19:11.577Z,8.10
2019-05-26T10:20:11.583Z,10.20
2019-05-26T10:21:11.591Z,6.60
2019-05-26T10:22:11.646Z,7.50
2019-05-26T10:23:11.635Z,6.90
2019-05-26T10:24:11.619Z,7.60
2019-05-26T10:25:11.694Z,8.50
2019-05-26T10:26:11.672Z,8.60
2019-05-26T10:27:11.665Z,7.70
2019-05-26T10:28:11.681Z,9.50
2019-05-26T10:29:11.697Z,9.00
2019-05-26T10:30:11.705Z,8.20
2019-05-26T10:31:11.731Z,6.30
2019-05-26T10:32:11.732Z,6.30
2019-05-26T10:33:11.746Z,7.80
2019-05-26T10:34:13.700Z,7.90
2019-05-26T10:35:11.781Z,10.00
2019-05-26T10:36:11.852Z,8.90
2019-05-26T10:37:11.820Z,8.10
2019-05-26T10:38:11.817Z,6.90
2019-05-26T10:39:11.820Z,8.20
2019-05-26T10:40:11.841Z,10.00
2019-05-26T10:41:11.854Z,5.90
2019-05-26T10:42:11.861Z,7.40
2019-05-26T10:44:11.887Z,7.10
2019-05-26T10:45:11.899Z,9.20
2019-05-26T10:46:11.916Z,8.20
2019-05-26T10:47:11.929Z,10.10
2019-05-26T10:48:11.944Z,8.90
2019-05-26T10:49:11.952Z,7.20
2019-05-26T10:50:11.967Z,7.80
2019-05-26T10:51:11.981Z,6.90
2019-05-26T10:52:11.993Z,7.50
2019-05-26T10:53:12.002Z,9.30
2019-05-26T10:54:12.018Z,11.90
2019-05-26T10:55:12.038Z,7.00
2019-05-26T10:56:12.050Z,7.10
2019-05-26T10:57:12.054Z,5.80
2019-05-26T10:58:12.061Z,11.20
2019-05-26T10:59:12.083Z,9.10
2019-05-26T11:00:12.098Z,8.80
2019-05-26T11:01:12.110Z,7.40
2019-05-26T11:02:12.128Z,9.30
2019-05-26T11:03:12.151Z,8.80
2019-05-26T11:04:12.156Z,6.70
2019-05-26T11:05:12.160Z,5.80
2019-05-26T11:06:12.169Z,6.50
2019-05-26T11:07:12.182Z,5.80
2019-05-26T11:08:12.211Z,7.20
2019-05-26T11:09:12.221Z,6.10
2019-05-26T11:10:12.230Z,6.00
2019-05-26T11:11:12.245Z,6.30
2019-05-26T11:12:14.310Z,5.20
2019-05-26T11:13:12.516Z,7.70
2019-05-26T11:14:12.297Z,6.30
2019-05-26T11:15:12.295Z,7.90
2019-05-26T11:16:12.330Z,6.60
2019-05-26T11:17:12.341Z,6.20
2019-05-26T11:18:12.392Z,6.40
2019-05-26T11:19:12.355Z,6.70
2019-05-26T11:20:12.384Z,5.90
2019-05-26T11:21:12.692Z,6.60
2019-05-26T11:22:12.410Z,8.90
2019-05-26T11:23:12.433Z,6.90
2019-05-26T11:24:12.423Z,6.10
2019-05-26T11:25:12.453Z,7.00
2019-05-26T11:26:12.466Z,7.30
2019-05-26T11:27:14.120Z,6.20
2019-05-26T11:28:12.478Z,7.00
2019-05-26T11:29:12.491Z,5.70
2019-05-26T11:30:12.619Z,6.80
2019-05-26T11:31:12.540Z,6.30
2019-05-26T11:32:12.528Z,7.00
2019-05-26T11:34:12.563Z,7.20
2019-05-26T11:35:12.583Z,5.30
2019-05-26T11:36:12.597Z,5.50
2019-05-26T11:37:12.596Z,4.70
2019-05-26T11:38:12.608Z,5.20
2019-05-26T11:39:12.631Z,5.40
2019-05-26T11:40:12.682Z,5.60
2019-05-26T11:41:12.660Z,5.20
2019-05-26T11:42:13.992Z,4.40
2019-05-26T11:43:16.854Z,5.50
2019-05-26T11:44:17.889Z,5.00
2019-05-26T11:45:12.725Z,6.10
2019-05-26T11:46:16.282Z,5.00
2019-05-26T11:47:12.814Z,6.60
2019-05-26T11:48:12.761Z,4.60
2019-05-26T11:49:12.774Z,6.30
2019-05-26T11:50:12.797Z,5.60
2019-05-26T11:51:12.830Z,7.70
2019-05-26T11:52:12.819Z,5.90
2019-05-26T11:53:12.839Z,6.00
2019-05-26T11:54:12.845Z,4.00
2019-05-26T11:55:12.860Z,4.60
2019-05-26T11:56:12.878Z,6.40
2019-05-26T11:57:12.891Z,5.40
2019-05-26T11:58:12.912Z,6.20
2019-05-26T11:59:12.917Z,6.10
2019-05-26T12:00:13.378Z,6.90
2019-05-26T12:01:12.950Z,4.70
2019-05-26T12:02:12.962Z,4.60
2019-05-26T12:03:12.965Z,4.80
2019-05-26T12:04:12.983Z,5.90
2019-05-26T12:05:16.591Z,5.10
2019-05-26T12:06:13.013Z,4.50
2019-05-26T12:07:13.030Z,3.90
2019-05-26T12:08:13.041Z,5.50
2019-05-26T12:09:13.088Z,3.70
2019-05-26T12:10:14.374Z,5.20
2019-05-26T12:11:13.122Z,5.30
2019-05-26T12:12:13.097Z,6.90
2019-05-26T12:13:13.227Z,4.60
2019-05-26T12:14:13.131Z,5.90
2019-05-26T12:15:13.134Z,4.70
2019-05-26T12:16:13.158Z,6.40
2019-05-26T12:17:13.212Z,3.90
2019-05-26T12:18:13.203Z,4.30
2019-05-26T12:19:13.220Z,5.70
2019-05-26T12:20:13.207Z,4.70
2019-05-26T12:21:13.227Z,4.00
2019-05-26T12:22:13.255Z,3.70
2019-05-26T12:23:13.265Z,4.60
2019-05-26T12:24:13.284Z,5.10
2019-05-26T12:25:13.291Z,4.70
2019-05-26T12:26:13.795Z,4.90
2019-05-26T12:27:13.317Z,4.10
2019-05-26T12:28:13.368Z,5.30
2019-05-26T12:29:13.352Z,4.40
2019-05-26T12:30:13.358Z,5.90
2019-05-26T12:31:13.384Z,5.00
2019-05-26T12:32:13.394Z,5.50
2019-05-26T12:33:13.503Z,5.40
2019-05-26T12:34:13.425Z,5.70
2019-05-26T12:35:13.434Z,6.20
2019-05-26T12:36:13.712Z,6.70
2019-05-26T12:37:13.465Z,4.20
2019-05-26T12:38:13.473Z,7.40
2019-05-26T12:39:13.504Z,5.50
2019-05-26T12:40:13.537Z,4.90
2019-05-26T12:41:13.519Z,5.90
2019-05-26T12:42:16.914Z,4.20
2019-05-26T12:43:14.384Z,5.50
2019-05-26T12:44:13.561Z,4.70
2019-05-26T12:45:13.567Z,4.70
2019-05-26T12:46:13.584Z,5.10
2019-05-26T12:47:13.598Z,3.70
2019-05-26T12:48:13.615Z,5.90
2019-05-26T12:49:13.633Z,7.10
2019-05-26T12:50:13.654Z,5.80
2019-05-26T12:51:13.654Z,5.40
2019-05-26T12:52:13.673Z,5.50
2019-05-26T12:53:13.681Z,6.90
2019-05-26T12:54:13.706Z,5.60
2019-05-26T12:55:13.717Z,4.10
2019-05-26T12:56:13.728Z,7.00
2019-05-26T12:57:13.740Z,6.00
2019-05-26T12:58:13.752Z,7.50
2019-05-26T12:59:13.957Z,5.20
2019-05-26T13:00:13.793Z,5.50
2019-05-26T13:01:13.788Z,5.70
2019-05-26T13:02:13.814Z,5.80
2019-05-26T13:03:13.838Z,5.40
2019-05-26T13:04:13.831Z,5.30
2019-05-26T13:05:13.851Z,4.40
2019-05-26T13:06:17.336Z,4.30
2019-05-26T13:07:13.886Z,5.40
2019-05-26T13:08:13.892Z,5.80